createdAt,value
2023-02-26T00:02:40.613Z,8.07
2023-02-26T00:05:04.266Z,8.60
2023-02-26T00:07:29.499Z,6.83
2023-02-26T00:09:55.207Z,5.80
2023-02-26T00:27:41.455Z,6.83
2023-02-26T00:31:08.210Z,5.73
2023-02-26T00:33:30.900Z,5.93
2023-02-26T00:35:57.657Z,7.27
2023-02-26T00:38:20.617Z,8.07
2023-02-26T00:40:48.237Z,10.27
2023-02-26T00:43:22.814Z,10.07
2023-02-26T00:45:54.661Z,7.67
2023-02-26T00:48:29.449Z,8.37
2023-02-26T00:51:00.318Z,6.40
2023-02-26T00:53:49.201Z,6.30
2023-02-26T00:56:15.509Z,8.00
2023-02-26T00:58:37.860Z,7.47
2023-02-26T01:01:01.524Z,5.57
2023-02-26T01:03:24.661Z,7.20
2023-02-26T01:05:47.537Z,7.23
2023-02-26T01:08:10.517Z,6.87
2023-02-26T01:10:33.833Z,9.07
2023-02-26T01:13:01.711Z,8.87
2023-02-26T01:15:29.406Z,6.17
2023-02-26T01:18:00.567Z,5.97
2023-02-26T01:20:25.146Z,5.50
2023-02-26T01:22:55.607Z,5.43
2023-02-26T01:25:26.376Z,6.57
2023-02-26T01:27:49.673Z,9.70
2023-02-26T01:30:15.500Z,6.93
2023-02-26T01:32:54.952Z,5.80
2023-02-26T01:35:31.501Z,5.63
2023-02-26T01:38:00.080Z,7.70
2023-02-26T01:40:41.733Z,8.50
2023-02-26T01:43:08.110Z,6.70
2023-02-26T01:45:33.463Z,7.87
2023-02-26T01:48:33.875Z,7.30
2023-02-26T01:50:58.342Z,6.10
2023-02-26T01:53:24.998Z,7.00
2023-02-26T01:56:19.975Z,6.60
2023-02-26T01:58:42.827Z,5.23
2023-02-26T02:01:05.716Z,8.13
2023-02-26T02:04:13.562Z,6.97
2023-02-26T02:06:36.967Z,5.17
2023-02-26T02:09:03.171Z,7.77
2023-02-26T02:11:29.423Z,7.10
2023-02-26T02:13:58.618Z,6.27
2023-02-26T02:16:45.420Z,5.90
2023-02-26T02:19:17.571Z,9.63
2023-02-26T02:22:03.337Z,7.07
2023-02-26T02:24:29.279Z,7.10
2023-02-26T02:26:59.572Z,10.73
2023-02-26T02:29:48.160Z,7.40
2023-02-26T02:32:12.162Z,5.70
2023-02-26T02:34:35.147Z,8.23
2023-02-26T02:37:13.599Z,11.67
2023-02-26T02:39:39.834Z,10.97
2023-02-26T02:42:11.185Z,8.03
2023-02-26T02:44:37.213Z,5.80
2023-02-26T02:50:13.654Z,5.37
2023-02-26T02:52:49.774Z,8.33
2023-02-26T02:55:21.639Z,7.23
2023-02-26T03:02:22.528Z,8.43
2023-02-26T03:04:45.383Z,6.97
2023-02-26T03:07:07.908Z,6.30
2023-02-26T03:09:30.762Z,5.70
2023-02-26T03:11:53.290Z,6.00
2023-02-26T03:14:16.474Z,7.83
2023-02-26T03:16:39.060Z,7.57
2023-02-26T03:22:48.780Z,7.57
2023-02-26T03:25:20.005Z,5.97
2023-02-26T03:27:52.089Z,5.83
2023-02-26T03:30:23.663Z,9.57
2023-02-26T03:32:51.774Z,8.63
2023-02-26T03:35:18.877Z,10.57
2023-02-26T03:38:01.416Z,11.80
2023-02-26T03:40:45.737Z,8.60
2023-02-26T03:43:17.980Z,10.23
2023-02-26T03:45:49.418Z,9.80
2023-02-26T03:48:14.723Z,6.03
2023-02-26T03:50:40.861Z,7.20
2023-02-26T03:53:23.183Z,10.17
2023-02-26T03:56:01.684Z,6.77
2023-02-26T03:58:24.573Z,11.37
2023-02-26T04:01:01.300Z,6.10
2023-02-26T04:03:42.603Z,7.20
2023-02-26T04:06:05.876Z,8.70
2023-02-26T04:08:28.720Z,6.30
2023-02-26T04:10:56.260Z,8.60
2023-02-26T04:13:19.764Z,7.57
2023-02-26T04:15:42.766Z,7.20
2023-02-26T04:18:30.611Z,5.73
2023-02-26T04:20:53.380Z,8.10
2023-02-26T04:23:16.253Z,7.10
2023-02-26T04:25:39.267Z,6.00
2023-02-26T04:28:23.039Z,7.87
2023-02-26T04:31:10.394Z,8.33
2023-02-26T04:33:34.670Z,6.70
2023-02-26T04:35:57.489Z,7.93
2023-02-26T04:38:42.850Z,7.40
2023-02-26T04:41:06.105Z,8.93
2023-02-26T04:43:28.969Z,8.13
2023-02-26T04:46:17.596Z,7.57
2023-02-26T04:48:40.154Z,7.37
2023-02-26T04:51:03.766Z,12.53
2023-02-26T04:53:28.794Z,10.27
2023-02-26T04:55:52.527Z,9.90
2023-02-26T04:58:15.288Z,7.53
2023-02-26T05:00:37.793Z,8.03
2023-02-26T05:03:17.110Z,7.40
2023-02-26T05:05:39.754Z,7.30
2023-02-26T05:08:02.195Z,11.47
2023-02-26T05:10:34.178Z,7.07
2023-02-26T05:12:56.796Z,7.53
2023-02-26T05:15:19.254Z,6.33
2023-02-26T05:17:41.689Z,6.67
2023-02-26T05:20:04.558Z,9.07
2023-02-26T05:22:27.527Z,7.87
2023-02-26T05:24:50.015Z,7.10
2023-02-26T05:27:13.187Z,8.20
2023-02-26T05:29:42.279Z,9.40
2023-02-26T05:32:06.690Z,7.37
2023-02-26T05:34:29.636Z,7.90
2023-02-26T05:36:52.398Z,8.17
2023-02-26T05:39:16.715Z,7.93
2023-02-26T05:41:39.272Z,8.23
2023-02-26T05:44:03.141Z,8.27
2023-02-26T05:46:25.802Z,8.60
2023-02-26T05:48:48.282Z,8.27
2023-02-26T05:51:10.856Z,9.93
2023-02-26T05:53:36.417Z,8.47
2023-02-26T05:55:59.719Z,9.10
2023-02-26T05:58:53.104Z,8.17
2023-02-26T06:05:00.900Z,12.40
2023-02-26T06:07:35.637Z,7.30
2023-02-26T06:09:58.806Z,9.93
2023-02-26T06:12:21.267Z,7.80
2023-02-26T06:14:43.752Z,9.80
2023-02-26T06:24:56.086Z,8.60
2023-02-26T06:27:46.814Z,6.90
2023-02-26T06:30:13.420Z,7.50
2023-02-26T06:32:36.257Z,7.57
2023-02-26T06:35:04.538Z,8.03
2023-02-26T06:38:05.014Z,7.00
2023-02-26T06:40:27.746Z,7.73
2023-02-26T06:42:50.648Z,7.47
2023-02-26T06:45:19.560Z,7.07
2023-02-26T06:47:52.067Z,7.67
2023-02-26T06:50:15.091Z,8.10
2023-02-26T06:52:37.933Z,8.70
2023-02-26T06:55:00.623Z,7.13
2023-02-26T07:01:21.440Z,7.10
2023-02-26T07:03:43.942Z,7.13
2023-02-26T07:06:25.958Z,8.70
2023-02-26T07:08:51.377Z,6.30
2023-02-26T07:11:15.221Z,10.93
2023-02-26T07:14:03.615Z,10.17
2023-02-26T07:16:27.194Z,6.50
2023-02-26T07:18:53.321Z,6.53
2023-02-26T07:21:16.009Z,6.23
2023-02-26T07:23:38.472Z,6.50
2023-02-26T07:26:02.855Z,6.47
2023-02-26T07:32:58.569Z,6.80
2023-02-26T07:38:48.196Z,6.23
2023-02-26T07:41:10.835Z,6.97
2023-02-26T07:43:35.897Z,5.53
2023-02-26T07:51:37.880Z,5.67
2023-02-26T07:54:05.304Z,5.80
2023-02-26T07:56:28.535Z,5.07
2023-02-26T07:59:11.835Z,5.60
2023-02-26T08:01:34.575Z,6.27
2023-02-26T08:04:01.344Z,8.37
2023-02-26T08:06:24.214Z,4.93
2023-02-26T08:08:47.240Z,7.20
2023-02-26T08:11:40.705Z,5.63
2023-02-26T08:26:58.469Z,4.97
2023-02-26T08:29:46.456Z,5.90
2023-02-26T08:35:13.479Z,5.03
2023-02-26T08:37:36.462Z,5.87
2023-02-26T08:40:02.069Z,6.23
2023-02-26T08:43:03.836Z,5.43
2023-02-26T08:45:26.649Z,5.60
2023-02-26T08:47:56.732Z,5.60
2023-02-26T08:50:32.850Z,5.67
2023-02-26T08:52:55.395Z,4.17
2023-02-26T08:55:18.142Z,4.37
2023-02-26T08:57:49.408Z,4.53
2023-02-26T09:00:12.268Z,4.23
2023-02-26T09:02:40.437Z,4.60
2023-02-26T09:05:25.493Z,4.80
2023-02-26T09:07:47.776Z,4.40
2023-02-26T09:10:10.892Z,5.20
2023-02-26T09:12:33.754Z,4.27
2023-02-26T09:14:59.105Z,4.77
2023-02-26T09:17:21.709Z,6.37
2023-02-26T09:19:46.517Z,4.43
2023-02-26T09:22:52.724Z,5.20
2023-02-26T09:25:22.409Z,4.77
2023-02-26T09:28:05.163Z,6.27
2023-02-26T09:30:55.941Z,8.13
2023-02-26T09:33:22.021Z,5.77
2023-02-26T09:36:04.872Z,5.00
2023-02-26T09:42:00.184Z,3.70
2023-02-26T09:44:44.846Z,4.43
2023-02-26T09:47:13.865Z,4.63
2023-02-26T09:52:32.923Z,3.80
2023-02-26T09:54:57.945Z,4.27
2023-02-26T09:57:48.414Z,3.60
2023-02-26T10:00:30.502Z,4.47
2023-02-26T10:03:26.361Z,4.60
2023-02-26T10:09:44.058Z,3.00
2023-02-26T10:12:29.982Z,3.37
2023-02-26T10:18:19.693Z,3.40
2023-02-26T10:20:55.983Z,2.80
2023-02-26T10:27:13.743Z,2.57
2023-02-26T10:29:48.309Z,2.90
2023-02-26T10:32:20.164Z,2.77
2023-02-26T10:34:50.009Z,2.60
2023-02-26T10:37:39.969Z,2.33
2023-02-26T10:40:12.035Z,2.83
2023-02-26T10:42:44.537Z,3.03
2023-02-26T10:52:34.904Z,3.80
2023-02-26T10:55:16.257Z,3.20
2023-02-26T11:00:25.002Z,5.07
2023-02-26T11:02:57.975Z,5.40
2023-02-26T11:05:21.651Z,4.77
2023-02-26T11:08:15.101Z,3.83
2023-02-26T11:10:42.441Z,2.80
2023-02-26T11:13:05.254Z,2.50
2023-02-26T11:15:28.328Z,2.03
2023-02-26T11:17:54.304Z,2.27
2023-02-26T11:21:03.816Z,2.30
2023-02-26T11:27:08.042Z,2.80
2023-02-26T11:29:47.457Z,2.37
2023-02-26T11:32:18.970Z,3.07
2023-02-26T11:34:47.090Z,4.37
2023-02-26T11:37:12.300Z,2.70
2023-02-26T11:39:49.173Z,2.97
2023-02-26T11:42:11.906Z,2.50
2023-02-26T11:44:38.909Z,2.90
2023-02-26T11:47:03.160Z,2.30
2023-02-26T11:49:40.732Z,2.50
2023-02-26T11:52:09.981Z,2.63
2023-02-26T11:54:35.203Z,2.90
2023-02-26T11:57:06.304Z,2.70
2023-02-26T11:59:31.543Z,2.30
2023-02-26T12:01:54.543Z,2.67
2023-02-26T12:04:22.250Z,2.80
2023-02-26T12:06:44.861Z,2.10
2023-02-26T12:09:12.718Z,2.33
2023-02-26T12:11:47.176Z,2.23
2023-02-26T12:14:25.182Z,5.93
2023-02-26T12:16:47.367Z,3.33
2023-02-26T12:19:19.748Z,3.20
2023-02-26T12:22:05.453Z,2.40
2023-02-26T12:24:27.741Z,4.30
2023-02-26T12:27:25.388Z,2.50
2023-02-26T12:29:53.735Z,3.50
2023-02-26T12:32:19.583Z,2.30
2023-02-26T12:35:00.619Z,2.27
2023-02-26T12:37:49.289Z,2.40
2023-02-26T12:40:23.654Z,2.10
2023-02-26T12:43:01.310Z,2.07
2023-02-26T12:45:26.677Z,2.10
2023-02-26T12:48:05.501Z,3.20
2023-02-26T12:50:33.371Z,2.20
2023-02-26T12:52:55.557Z,2.00
2023-02-26T12:55:31.252Z,2.40
2023-02-26T12:58:14.156Z,2.80
2023-02-26T13:00:48.503Z,2.17
2023-02-26T13:03:16.643Z,2.10
2023-02-26T13:05:45.927Z,2.10
2023-02-26T13:08:17.450Z,2.20
2023-02-26T13:10:42.905Z,3.20
2023-02-26T13:13:15.631Z,2.30
2023-02-26T13:15:56.962Z,2.40
2023-02-26T13:18:25.937Z,3.00
2023-02-26T13:20:56.481Z,2.40
2023-02-26T13:23:21.320Z,2.77
2023-02-26T13:25:56.786Z,2.23
2023-02-26T13:28:19.243Z,3.70
2023-02-26T13:30:54.131Z,2.87
2023-02-26T13:33:25.877Z,2.90
2023-02-26T13:35:49.789Z,2.40
2023-02-26T13:38:30.900Z,2.00
2023-02-26T13:42:06.521Z,2.20
2023-02-26T13:44:51.928Z,2.17
2023-02-26T13:47:33.252Z,2.50
2023-02-26T13:49:58.330Z,2.50
2023-02-26T13:52:25.893Z,2.37
2023-02-26T13:55:17.395Z,3.03
2023-02-26T13:57:42.459Z,2.10
2023-02-26T14:00:26.895Z,2.20
2023-02-26T14:02:51.636Z,2.53
2023-02-26T14:06:03.976Z,2.50
2023-02-26T14:08:28.364Z,1.83
2023-02-26T14:10:50.515Z,2.30
2023-02-26T14:13:15.932Z,2.80
2023-02-26T14:15:41.615Z,3.53
2023-02-26T14:18:07.442Z,2.30
2023-02-26T14:20:30.774Z,2.20
2023-02-26T14:23:11.415Z,2.50
2023-02-26T14:25:35.881Z,1.97
2023-02-26T14:28:16.591Z,2.30
2023-02-26T14:30:43.733Z,2.13
2023-02-26T14:33:10.407Z,2.23
2023-02-26T14:35:43.878Z,2.13
2023-02-26T14:38:09.499Z,2.30
2023-02-26T14:40:37.273Z,2.40
2023-02-26T14:43:01.521Z,2.30
2023-02-26T14:45:26.862Z,2.27
2023-02-26T14:47:50.363Z,2.20
2023-02-26T14:50:16.185Z,3.17
2023-02-26T14:52:47.592Z,2.40
2023-02-26T14:55:28.723Z,2.30
2023-02-26T14:58:10.699Z,2.20
2023-02-26T15:00:47.942Z,2.30
2023-02-26T15:03:29.214Z,1.93
2023-02-26T15:06:01.193Z,2.43
2023-02-26T15:08:26.695Z,2.33
2023-02-26T15:10:51.819Z,2.53
2023-02-26T15:13:21.287Z,2.40
2023-02-26T15:15:52.920Z,2.57
2023-02-26T15:18:23.482Z,2.90
2023-02-26T15:21:06.416Z,2.53
2023-02-26T15:23:40.703Z,2.30
2023-02-26T15:26:04.061Z,2.50
2023-02-26T15:28:37.902Z,2.70
2023-02-26T15:31:01.385Z,3.00
2023-02-26T15:33:25.014Z,2.53
2023-02-26T15:35:49.554Z,2.33
2023-02-26T15:38:12.220Z,2.20
2023-02-26T15:40:36.122Z,2.40
2023-02-26T15:42:59.730Z,2.83
2023-02-26T15:45:25.368Z,2.90
2023-02-26T15:47:51.240Z,2.10
2023-02-26T15:50:17.732Z,2.40
2023-02-26T15:52:41.261Z,2.67
2023-02-26T15:55:06.683Z,2.30
2023-02-26T15:57:29.477Z,2.30
2023-02-26T16:00:02.412Z,4.60
2023-02-26T16:02:37.344Z,2.43
2023-02-26T16:05:03.360Z,2.83
2023-02-26T16:07:25.863Z,2.00
2023-02-26T16:09:51.413Z,2.30
2023-02-26T16:12:27.431Z,2.20
2023-02-26T16:14:51.638Z,3.43
2023-02-26T16:17:16.337Z,2.30
2023-02-26T16:19:43.520Z,2.57
2023-02-26T16:22:08.654Z,2.80
2023-02-26T16:24:31.979Z,6.03
2023-02-26T16:27:01.756Z,2.70
2023-02-26T16:29:25.813Z,3.13
2023-02-26T16:31:53.572Z,2.60
2023-02-26T16:34:37.234Z,2.47
2023-02-26T16:37:10.676Z,3.00
2023-02-26T16:39:33.672Z,2.50
2023-02-26T16:45:36.421Z,3.60
2023-02-26T16:48:00.167Z,3.27
2023-02-26T16:57:43.109Z,2.80
2023-02-26T17:00:09.625Z,4.90
2023-02-26T17:02:41.974Z,2.50
2023-02-26T17:05:10.900Z,3.50
2023-02-26T17:11:14.385Z,2.80
2023-02-26T17:13:47.334Z,2.70
2023-02-26T17:16:30.092Z,3.00
2023-02-26T17:18:54.342Z,2.90
2023-02-26T17:21:17.857Z,2.67
2023-02-26T17:23:45.085Z,3.30
2023-02-26T17:29:28.127Z,3.20
2023-02-26T17:31:51.361Z,3.23
2023-02-26T17:34:34.186Z,3.10
2023-02-26T17:37:13.536Z,3.10
2023-02-26T17:39:37.425Z,3.20
2023-02-26T17:45:08.454Z,2.73
2023-02-26T17:47:31.334Z,2.73
2023-02-26T17:50:21.182Z,3.10
2023-02-26T17:53:01.691Z,3.27
2023-02-26T17:55:24.713Z,3.07
2023-02-26T17:57:47.302Z,2.93
2023-02-26T18:00:14.890Z,3.13
2023-02-26T18:02:40.399Z,2.90
2023-02-26T18:05:04.011Z,4.93
2023-02-26T18:07:26.380Z,4.10
2023-02-26T18:09:49.266Z,4.10
2023-02-26T18:12:13.714Z,3.23
2023-02-26T18:14:36.088Z,3.67
2023-02-26T18:16:58.472Z,3.00
2023-02-26T18:19:23.980Z,3.07
2023-02-26T18:21:46.268Z,3.23
2023-02-26T18:24:08.888Z,4.37
2023-02-26T18:26:32.936Z,4.70
2023-02-26T18:28:58.338Z,4.53
2023-02-26T18:31:20.888Z,6.13
2023-02-26T18:33:44.537Z,3.80
2023-02-26T18:38:47.288Z,3.10
2023-02-26T18:41:10.901Z,3.10
2023-02-26T18:43:33.647Z,3.70
2023-02-26T18:46:01.213Z,3.00
2023-02-26T18:48:23.821Z,3.03
2023-02-26T18:50:46.859Z,4.20
2023-02-26T18:53:17.018Z,3.60
2023-02-26T18:55:39.555Z,3.03
2023-02-26T18:58:05.673Z,2.80
2023-02-26T19:00:37.013Z,3.13
2023-02-26T19:03:03.227Z,3.10
2023-02-26T19:05:26.634Z,3.37
2023-02-26T19:07:50.012Z,3.47
2023-02-26T19:10:14.996Z,2.87
2023-02-26T19:12:38.866Z,3.30
2023-02-26T19:15:22.525Z,4.00
2023-02-26T19:17:58.924Z,4.03
2023-02-26T19:20:21.931Z,8.70
2023-02-26T19:23:09.971Z,10.27
2023-02-26T19:25:37.283Z,4.40
2023-02-26T19:27:59.743Z,3.77
2023-02-26T19:31:16.593Z,3.33
2023-02-26T19:33:40.726Z,5.03
2023-02-26T19:36:03.789Z,3.60
2023-02-26T19:38:32.040Z,3.37
2023-02-26T19:40:55.944Z,4.13
2023-02-26T19:43:18.800Z,4.03
2023-02-26T19:45:42.293Z,3.70
2023-02-26T19:48:05.245Z,3.20
2023-02-26T19:50:30.669Z,3.57
2023-02-26T19:53:18.985Z,3.80
2023-02-26T19:55:43.391Z,7.83
2023-02-26T19:58:30.615Z,3.60
2023-02-26T20:04:28.450Z,3.27
2023-02-26T20:06:52.329Z,4.27
2023-02-26T20:09:16.079Z,3.40
2023-02-26T20:12:04.350Z,3.70
2023-02-26T20:18:33.015Z,5.00
2023-02-26T20:21:08.916Z,7.13
2023-02-26T20:23:34.880Z,4.93
2023-02-26T20:29:57.046Z,4.17
2023-02-26T20:32:20.694Z,4.53
2023-02-26T20:34:43.613Z,4.70
2023-02-26T20:37:29.173Z,6.13
2023-02-26T20:40:05.688Z,4.77
2023-02-26T20:42:46.066Z,4.30
2023-02-26T20:45:09.413Z,4.03
2023-02-26T20:47:32.416Z,4.00
2023-02-26T20:49:55.220Z,4.23
2023-02-26T20:52:19.749Z,3.53
2023-02-26T20:54:42.451Z,4.17
2023-02-26T20:57:04.995Z,4.30
2023-02-26T20:59:27.369Z,4.47
2023-02-26T21:01:51.724Z,4.53
2023-02-26T21:04:14.253Z,4.13
2023-02-26T21:06:47.992Z,3.77
2023-02-26T21:09:15.365Z,4.83
2023-02-26T21:12:02.836Z,4.53
2023-02-26T21:14:26.873Z,4.43
2023-02-26T21:16:49.349Z,3.77
2023-02-26T21:19:11.681Z,6.60
2023-02-26T21:21:34.830Z,14.07
2023-02-26T21:23:57.641Z,4.50
2023-02-26T21:26:20.821Z,3.70
2023-02-26T21:28:48.186Z,3.60
2023-02-26T21:31:12.140Z,3.30
2023-02-26T21:33:34.604Z,3.93
2023-02-26T21:36:09.021Z,4.77
2023-02-26T21:38:34.252Z,3.50
2023-02-26T21:41:22.116Z,4.23
2023-02-26T21:43:47.819Z,3.90
2023-02-26T21:46:10.187Z,4.23
2023-02-26T21:48:32.621Z,4.77
2023-02-26T21:50:56.610Z,6.80
2023-02-26T21:53:19.779Z,5.33
2023-02-26T21:59:09.823Z,14.70
2023-02-26T22:01:32.242Z,17.53
2023-02-26T22:03:54.647Z,6.70
2023-02-26T22:06:17.389Z,4.90
2023-02-26T22:08:39.721Z,4.63
2023-02-26T22:11:02.328Z,4.20
2023-02-26T22:13:24.763Z,4.27
2023-02-26T22:15:50.215Z,3.80
2023-02-26T22:18:12.744Z,4.37
2023-02-26T22:20:38.461Z,5.00
2023-02-26T22:23:01.017Z,4.03
2023-02-26T22:25:23.355Z,5.47
2023-02-26T22:27:45.820Z,4.40
2023-02-26T22:30:08.597Z,3.73
2023-02-26T22:32:31.163Z,3.53
2023-02-26T22:37:56.616Z,4.27
2023-02-26T22:40:19.190Z,4.63
2023-02-26T22:42:42.222Z,4.37
2023-02-26T22:45:04.864Z,4.30
2023-02-26T22:47:27.192Z,14.57
2023-02-26T22:49:49.509Z,3.70
2023-02-26T22:52:12.128Z,3.70
2023-02-26T22:54:35.796Z,3.97
2023-02-26T22:56:58.410Z,3.90
2023-02-26T22:59:20.895Z,6.33
2023-02-26T23:01:43.751Z,3.70
2023-02-26T23:04:06.882Z,3.47
2023-02-26T23:06:29.676Z,3.57
2023-02-26T23:08:52.276Z,4.43
2023-02-26T23:11:15.322Z,4.13
2023-02-26T23:13:40.785Z,3.60
2023-02-26T23:16:04.162Z,4.30
2023-02-26T23:18:26.976Z,5.57
2023-02-26T23:20:50.286Z,3.60
2023-02-26T23:23:12.910Z,3.57
2023-02-26T23:25:41.367Z,7.47
2023-02-26T23:28:04.110Z,4.20
2023-02-26T23:30:27.754Z,6.83
2023-02-26T23:32:50.414Z,4.50
2023-02-26T23:35:13.074Z,8.07
2023-02-26T23:37:35.627Z,12.70
2023-02-26T23:39:58.495Z,4.27
2023-02-26T23:42:20.851Z,14.37
2023-02-26T23:44:43.579Z,5.93
2023-02-26T23:47:06.635Z,11.50
2023-02-26T23:49:29.001Z,13.03
2023-02-26T23:51:51.316Z,10.03
2023-02-26T23:54:14.680Z,5.10
2023-02-26T23:56:37.745Z,5.30
2023-02-26T23:59:00.257Z,15.67
